Prunedale, California
Current Conditions -  °F | °C
As of 7:53 AM on Wednesday 26 Nov 2014 (Local Time) from KSNS Reporting Station
Clear Clear  
Wind Chill: 13°   Ceiling: Unl
Heat Index: 13°   Visibility: 10mi
Dew Point:   Wind: 13mph
Humidity: 49%   Direction: 100°E
Pressure: 30.27"   Gusts: NA
Location:  36.7756°N, 121.661°W
Report Text: KSNS 261553Z 10011KT 10SM CLR 13/03 A3027 RMK AO2 SLP258 T01330028
Loading
Personal Weather Stations






























Interactive Weather Map New forecast layout! Learn more

10-Day Weather Forecast

Advertisements
Track Severe Weather on mobile